sensor_id;sensor_type;location;lat;lon;timestamp;pressure;altitude;pressure_sealevel;temperature;humidity
1652;BME280;823;49.028;8.454;2022-10-17T00:01:36;100871.75;;;17.69;63.93
1652;BME280;823;49.028;8.454;2022-10-17T00:06:36;100858.72;;;17.68;63.64
1652;BME280;823;49.028;8.454;2022-10-17T00:11:36;100870.25;;;17.65;63.72
1652;BME280;823;49.028;8.454;2022-10-17T00:16:37;100871.72;;;17.38;64.18
1652;BME280;823;49.028;8.454;2022-10-17T00:21:37;100876.81;;;17.41;63.82
1652;BME280;823;49.028;8.454;2022-10-17T00:26:37;100884.22;;;17.48;63.74
1652;BME280;823;49.028;8.454;2022-10-17T00:31:38;100894.31;;;17.39;63.84
1652;BME280;823;49.028;8.454;2022-10-17T00:36:38;100896.09;;;17.38;63.75
1652;BME280;823;49.028;8.454;2022-10-17T00:41:38;100904.34;;;17.30;63.79
1652;BME280;823;49.028;8.454;2022-10-17T00:46:39;100897.50;;;17.28;63.86
1652;BME280;823;49.028;8.454;2022-10-17T00:51:44;100899.91;;;17.32;63.88
1652;BME280;823;49.028;8.454;2022-10-17T00:56:46;100905.78;;;17.36;64.08
1652;BME280;823;49.028;8.454;2022-10-17T01:02:03;100917.69;;;17.42;63.60
1652;BME280;823;49.028;8.454;2022-10-17T01:07:04;100916.41;;;17.33;63.96
1652;BME280;823;49.028;8.454;2022-10-17T01:28:04;100909.75;;;17.27;63.86
1652;BME280;823;49.028;8.454;2022-10-17T01:33:07;100906.44;;;17.24;64.28
1652;BME280;823;49.028;8.454;2022-10-17T01:38:33;100912.75;;;17.19;64.24
1652;BME280;823;49.028;8.454;2022-10-17T01:43:47;100903.06;;;17.22;63.21
1652;BME280;823;49.028;8.454;2022-10-17T01:48:51;100901.63;;;17.16;63.49
1652;BME280;823;49.028;8.454;2022-10-17T01:59:12;100904.50;;;17.11;63.86
1652;BME280;823;49.028;8.454;2022-10-17T02:04:14;100905.41;;;17.10;63.75
1652;BME280;823;49.028;8.454;2022-10-17T02:09:25;100900.28;;;17.09;63.63
1652;BME280;823;49.028;8.454;2022-10-17T02:14:31;100909.84;;;17.08;63.62
1652;BME280;823;49.028;8.454;2022-10-17T02:20:05;100904.72;;;17.07;63.08
1652;BME280;823;49.028;8.454;2022-10-17T02:35:42;100906.94;;;16.79;63.64
1652;BME280;823;49.028;8.454;2022-10-17T02:40:44;100901.22;;;16.73;63.28
1652;BME280;823;49.028;8.454;2022-10-17T02:45:46;100903.13;;;16.69;63.88
1652;BME280;823;49.028;8.454;2022-10-17T02:56:21;100900.81;;;16.63;63.49
1652;BME280;823;49.028;8.454;2022-10-17T03:01:21;100902.41;;;16.65;63.36
1652;BME280;823;49.028;8.454;2022-10-17T03:06:22;100900.38;;;16.55;63.74
1652;BME280;823;49.028;8.454;2022-10-17T03:11:22;100901.81;;;16.60;63.49
1652;BME280;823;49.028;8.454;2022-10-17T03:16:22;100899.13;;;16.62;63.32
1652;BME280;823;49.028;8.454;2022-10-17T03:21:23;100897.75;;;16.55;63.55
1652;BME280;823;49.028;8.454;2022-10-17T03:26:23;100901.94;;;16.57;63.24
1652;BME280;823;49.028;8.454;2022-10-17T03:31:24;100908.03;;;16.58;63.55
1652;BME280;823;49.028;8.454;2022-10-17T03:36:24;100915.09;;;16.56;62.91
1652;BME280;823;49.028;8.454;2022-10-17T03:41:24;100918.94;;;16.48;63.15
1652;BME280;823;49.028;8.454;2022-10-17T03:46:25;100917.38;;;16.44;63.13
1652;BME280;823;49.028;8.454;2022-10-17T03:51:25;100928.22;;;16.37;63.57
1652;BME280;823;49.028;8.454;2022-10-17T03:56:26;100937.06;;;16.34;63.40
1652;BME280;823;49.028;8.454;2022-10-17T04:01:26;100942.94;;;16.38;63.24
1652;BME280;823;49.028;8.454;2022-10-17T04:06:27;100943.34;;;16.30;63.47
1652;BME280;823;49.028;8.454;2022-10-17T04:11:28;100948.16;;;16.20;63.80
1652;BME280;823;49.028;8.454;2022-10-17T04:16:28;100951.75;;;16.17;63.27
1652;BME280;823;49.028;8.454;2022-10-17T04:21:29;100950.19;;;16.13;63.47
1652;BME280;823;49.028;8.454;2022-10-17T04:26:29;100949.72;;;16.05;64.07
1652;BME280;823;49.028;8.454;2022-10-17T04:31:30;100952.25;;;16.07;63.56
1652;BME280;823;49.028;8.454;2022-10-17T04:36:30;100964.50;;;16.05;63.42
1652;BME280;823;49.028;8.454;2022-10-17T04:41:31;100962.91;;;16.02;64.03
1652;BME280;823;49.028;8.454;2022-10-17T04:46:32;100972.78;;;15.95;64.18
1652;BME280;823;49.028;8.454;2022-10-17T04:51:33;100978.91;;;15.94;64.26
1652;BME280;823;49.028;8.454;2022-10-17T04:56:33;100972.06;;;15.92;64.57
1652;BME280;823;49.028;8.454;2022-10-17T05:01:34;100975.47;;;15.94;64.04
1652;BME280;823;49.028;8.454;2022-10-17T05:06:36;100976.22;;;15.96;63.71
1652;BME280;823;49.028;8.454;2022-10-17T05:11:36;100978.16;;;15.92;63.67
1652;BME280;823;49.028;8.454;2022-10-17T05:16:37;100981.81;;;15.88;63.85
1652;BME280;823;49.028;8.454;2022-10-17T05:21:37;100977.84;;;15.79;64.22
1652;BME280;823;49.028;8.454;2022-10-17T05:26:38;100980.34;;;15.82;64.10
1652;BME280;823;49.028;8.454;2022-10-17T05:31:38;100972.50;;;15.82;64.11
1652;BME280;823;49.028;8.454;2022-10-17T05:36:39;100989.69;;;15.87;63.65
1652;BME280;823;49.028;8.454;2022-10-17T05:41:39;100985.19;;;15.90;64.04
1652;BME280;823;49.028;8.454;2022-10-17T05:46:40;100984.19;;;15.93;63.86
1652;BME280;823;49.028;8.454;2022-10-17T05:51:40;100985.75;;;15.97;64.20
1652;BME280;823;49.028;8.454;2022-10-17T05:56:40;100993.28;;;16.03;64.31
1652;BME280;823;49.028;8.454;2022-10-17T06:01:41;101005.56;;;16.01;64.67
1652;BME280;823;49.028;8.454;2022-10-17T06:06:41;101008.03;;;16.04;64.07
1652;BME280;823;49.028;8.454;2022-10-17T06:11:41;101013.09;;;16.07;63.93
1652;BME280;823;49.028;8.454;2022-10-17T06:16:42;101011.63;;;16.02;63.88
1652;BME280;823;49.028;8.454;2022-10-17T06:21:42;101013.09;;;16.07;63.69
1652;BME280;823;49.028;8.454;2022-10-17T06:26:43;101014.94;;;16.05;63.73
1652;BME280;823;49.028;8.454;2022-10-17T06:31:43;101032.91;;;16.11;64.00
1652;BME280;823;49.028;8.454;2022-10-17T06:36:43;101034.47;;;16.15;63.94
1652;BME280;823;49.028;8.454;2022-10-17T06:41:44;101049.06;;;16.20;63.95
1652;BME280;823;49.028;8.454;2022-10-17T06:46:44;101056.97;;;16.37;63.95
1652;BME280;823;49.028;8.454;2022-10-17T06:51:45;101054.44;;;16.55;63.91
1652;BME280;823;49.028;8.454;2022-10-17T06:56:45;101057.22;;;16.69;64.15
1652;BME280;823;49.028;8.454;2022-10-17T07:01:45;101064.13;;;16.89;64.16
1652;BME280;823;49.028;8.454;2022-10-17T07:06:46;101059.69;;;17.09;64.05
1652;BME280;823;49.028;8.454;2022-10-17T07:11:46;101072.75;;;17.26;63.70
1652;BME280;823;49.028;8.454;2022-10-17T07:16:46;101058.75;;;17.45;63.37
1652;BME280;823;49.028;8.454;2022-10-17T07:21:46;101078.09;;;17.58;63.58
1652;BME280;823;49.028;8.454;2022-10-17T07:26:48;101091.00;;;17.79;63.20
1652;BME280;823;49.028;8.454;2022-10-17T07:31:48;101092.69;;;17.97;62.81
1652;BME280;823;49.028;8.454;2022-10-17T07:36:49;101095.34;;;18.13;63.11
1652;BME280;823;49.028;8.454;2022-10-17T07:41:51;101095.94;;;18.34;62.57
1652;BME280;823;49.028;8.454;2022-10-17T07:46:51;101100.94;;;18.55;62.55
1652;BME280;823;49.028;8.454;2022-10-17T07:51:51;101110.50;;;18.72;61.86
1652;BME280;823;49.028;8.454;2022-10-17T07:56:52;101108.75;;;18.88;61.40
1652;BME280;823;49.028;8.454;2022-10-17T08:01:55;101109.19;;;19.11;60.86
1652;BME280;823;49.028;8.454;2022-10-17T08:06:56;101116.94;;;19.29;60.22
1652;BME280;823;49.028;8.454;2022-10-17T08:11:56;101122.03;;;19.46;59.58
1652;BME280;823;49.028;8.454;2022-10-17T08:16:56;101125.44;;;19.63;59.03
1652;BME280;823;49.028;8.454;2022-10-17T08:21:57;101122.69;;;19.80;58.62
1652;BME280;823;49.028;8.454;2022-10-17T08:26:58;101116.78;;;20.05;58.30
1652;BME280;823;49.028;8.454;2022-10-17T08:31:59;101118.72;;;20.31;57.92
1652;BME280;823;49.028;8.454;2022-10-17T08:37:00;101127.91;;;20.38;56.89
1652;BME280;823;49.028;8.454;2022-10-17T08:47:22;101135.97;;;20.49;56.80
1652;BME280;823;49.028;8.454;2022-10-17T08:57:38;101128.34;;;21.01;56.59
1652;BME280;823;49.028;8.454;2022-10-17T09:02:53;101128.59;;;21.23;56.65
1652;BME280;823;49.028;8.454;2022-10-17T09:19:02;101134.41;;;21.69;55.16
1652;BME280;823;49.028;8.454;2022-10-17T09:24:12;101126.63;;;22.43;51.57
1652;BME280;823;49.028;8.454;2022-10-17T09:29:19;101141.22;;;22.23;51.99
1652;BME280;823;49.028;8.454;2022-10-17T09:34:21;101142.25;;;22.20;52.91
1652;BME280;823;49.028;8.454;2022-10-17T09:39:23;101143.94;;;22.21;53.96
1652;BME280;823;49.028;8.454;2022-10-17T09:44:33;101142.91;;;22.11;52.81
1652;BME280;823;49.028;8.454;2022-10-17T09:49:39;101141.44;;;22.20;53.36
1652;BME280;823;49.028;8.454;2022-10-17T09:54:44;101142.25;;;22.20;53.20
1652;BME280;823;49.028;8.454;2022-10-17T09:59:54;101134.44;;;22.32;53.25
1652;BME280;823;49.028;8.454;2022-10-17T10:05:05;101134.41;;;22.57;53.51
1652;BME280;823;49.028;8.454;2022-10-17T10:10:22;101139.81;;;22.80;53.05
1652;BME280;823;49.028;8.454;2022-10-17T10:15:37;101144.13;;;23.05;52.46
1652;BME280;823;49.028;8.454;2022-10-17T10:20:40;101143.63;;;23.24;51.94
1652;BME280;823;49.028;8.454;2022-10-17T10:31:36;101143.97;;;23.67;50.94
1652;BME280;823;49.028;8.454;2022-10-17T10:41:50;101146.16;;;23.84;49.54
1652;BME280;823;49.028;8.454;2022-10-17T10:47:20;101143.78;;;23.92;49.23
1652;BME280;823;49.028;8.454;2022-10-17T10:52:29;101151.22;;;23.87;48.93
1652;BME280;823;49.028;8.454;2022-10-17T10:57:32;101145.31;;;23.84;48.13
1652;BME280;823;49.028;8.454;2022-10-17T11:03:00;101131.19;;;24.07;48.48
1652;BME280;823;49.028;8.454;2022-10-17T11:08:14;101143.91;;;24.02;48.11
1652;BME280;823;49.028;8.454;2022-10-17T11:13:22;101155.66;;;24.43;47.67
1652;BME280;823;49.028;8.454;2022-10-17T11:18:41;101154.13;;;24.63;47.16
1652;BME280;823;49.028;8.454;2022-10-17T11:23:46;101157.72;;;24.62;46.73
1652;BME280;823;49.028;8.454;2022-10-17T11:28:47;101153.09;;;24.87;47.00
1652;BME280;823;49.028;8.454;2022-10-17T11:33:55;101162.22;;;24.83;46.88
1652;BME280;823;49.028;8.454;2022-10-17T11:39:00;101167.09;;;24.99;46.59
1652;BME280;823;49.028;8.454;2022-10-17T11:44:10;101168.09;;;24.98;45.29
1652;BME280;823;49.028;8.454;2022-10-17T11:49:17;101160.50;;;24.93;45.65
1652;BME280;823;49.028;8.454;2022-10-17T11:59:56;101162.78;;;25.52;45.40
1652;BME280;823;49.028;8.454;2022-10-17T12:05:06;101156.06;;;25.47;44.67
1652;BME280;823;49.028;8.454;2022-10-17T12:15:46;101177.06;;;25.39;45.00
1652;BME280;823;49.028;8.454;2022-10-17T12:20:57;101164.88;;;25.48;45.07
1652;BME280;823;49.028;8.454;2022-10-17T12:26:00;101158.72;;;25.47;44.88
1652;BME280;823;49.028;8.454;2022-10-17T12:52:09;101143.75;;;26.10;43.69
1652;BME280;823;49.028;8.454;2022-10-17T12:57:19;101147.06;;;26.02;43.83
1652;BME280;823;49.028;8.454;2022-10-17T13:02:24;101145.69;;;26.08;43.66
1652;BME280;823;49.028;8.454;2022-10-17T13:07:24;101140.44;;;26.17;43.70
1652;BME280;823;49.028;8.454;2022-10-17T13:12:25;101143.50;;;26.13;43.58
1652;BME280;823;49.028;8.454;2022-10-17T13:17:28;101136.91;;;26.07;43.22
1652;BME280;823;49.028;8.454;2022-10-17T13:22:31;101138.53;;;26.29;43.26
1652;BME280;823;49.028;8.454;2022-10-17T13:27:34;101140.19;;;25.99;42.87
1652;BME280;823;49.028;8.454;2022-10-17T13:32:37;101141.25;;;26.18;42.82
1652;BME280;823;49.028;8.454;2022-10-17T13:37:42;101148.59;;;26.36;42.26
1652;BME280;823;49.028;8.454;2022-10-17T13:42:44;101149.56;;;26.44;42.70
1652;BME280;823;49.028;8.454;2022-10-17T13:47:46;101157.16;;;26.49;42.59
1652;BME280;823;49.028;8.454;2022-10-17T13:52:46;101170.00;;;26.63;42.12
1652;BME280;823;49.028;8.454;2022-10-17T13:57:47;101171.31;;;26.89;42.24
1652;BME280;823;49.028;8.454;2022-10-17T14:02:47;101160.56;;;26.90;41.76
1652;BME280;823;49.028;8.454;2022-10-17T14:07:59;101168.81;;;27.07;41.35
1652;BME280;823;49.028;8.454;2022-10-17T14:13:04;101165.03;;;27.09;41.51
1652;BME280;823;49.028;8.454;2022-10-17T14:18:07;101155.41;;;26.89;41.60
1652;BME280;823;49.028;8.454;2022-10-17T14:23:37;101160.84;;;26.87;41.48
1652;BME280;823;49.028;8.454;2022-10-17T14:28:40;101164.88;;;26.72;41.70
1652;BME280;823;49.028;8.454;2022-10-17T14:33:45;101160.16;;;26.75;42.44
1652;BME280;823;49.028;8.454;2022-10-17T14:38:50;101155.69;;;26.76;42.70
1652;BME280;823;49.028;8.454;2022-10-17T14:43:53;101156.25;;;26.79;43.32
1652;BME280;823;49.028;8.454;2022-10-17T14:48:58;101150.66;;;26.82;42.59
1652;BME280;823;49.028;8.454;2022-10-17T14:54:18;101152.88;;;26.87;42.41
1652;BME280;823;49.028;8.454;2022-10-17T14:59:21;101156.88;;;26.62;42.48
1652;BME280;823;49.028;8.454;2022-10-17T15:04:23;101165.59;;;26.74;42.48
1652;BME280;823;49.028;8.454;2022-10-17T15:09:24;101176.56;;;26.59;43.19
1652;BME280;823;49.028;8.454;2022-10-17T15:14:27;101178.50;;;26.47;42.39
1652;BME280;823;49.028;8.454;2022-10-17T15:19:28;101185.22;;;26.51;42.90
1652;BME280;823;49.028;8.454;2022-10-17T15:24:28;101188.56;;;26.54;43.13
1652;BME280;823;49.028;8.454;2022-10-17T15:29:28;101186.16;;;26.41;43.76
1652;BME280;823;49.028;8.454;2022-10-17T15:34:29;101195.19;;;26.28;43.68
1652;BME280;823;49.028;8.454;2022-10-17T15:39:29;101199.06;;;26.24;43.35
1652;BME280;823;49.028;8.454;2022-10-17T15:44:29;101203.66;;;26.22;43.73
1652;BME280;823;49.028;8.454;2022-10-17T15:49:30;101197.78;;;25.97;44.89
1652;BME280;823;49.028;8.454;2022-10-17T15:54:30;101202.16;;;25.77;45.27
1652;BME280;823;49.028;8.454;2022-10-17T15:59:32;101200.66;;;25.63;46.01
1652;BME280;823;49.028;8.454;2022-10-17T16:04:33;101201.00;;;25.49;46.79
1652;BME280;823;49.028;8.454;2022-10-17T16:09:34;101206.81;;;25.31;47.47
1652;BME280;823;49.028;8.454;2022-10-17T16:14:36;101214.59;;;25.12;48.55
1652;BME280;823;49.028;8.454;2022-10-17T16:19:36;101205.63;;;24.92;49.21
1652;BME280;823;49.028;8.454;2022-10-17T16:24:36;101213.50;;;24.71;49.99
1652;BME280;823;49.028;8.454;2022-10-17T16:29:37;101210.72;;;24.50;50.50
1652;BME280;823;49.028;8.454;2022-10-17T16:34:37;101225.50;;;24.29;50.92
1652;BME280;823;49.028;8.454;2022-10-17T16:39:37;101228.25;;;24.05;51.46
1652;BME280;823;49.028;8.454;2022-10-17T16:44:38;101232.59;;;23.82;52.03
1652;BME280;823;49.028;8.454;2022-10-17T16:49:38;101231.47;;;23.62;52.60
1652;BME280;823;49.028;8.454;2022-10-17T16:54:39;101238.75;;;23.47;53.08
1652;BME280;823;49.028;8.454;2022-10-17T16:59:39;101248.50;;;23.34;53.42
1652;BME280;823;49.028;8.454;2022-10-17T17:04:40;101248.47;;;23.22;54.39
1652;BME280;823;49.028;8.454;2022-10-17T17:09:40;101250.06;;;23.12;54.42
1652;BME280;823;49.028;8.454;2022-10-17T17:14:40;101250.94;;;23.00;54.97
1652;BME280;823;49.028;8.454;2022-10-17T17:19:42;101262.16;;;22.90;55.26
1652;BME280;823;49.028;8.454;2022-10-17T17:24:42;101262.09;;;22.79;55.63
1652;BME280;823;49.028;8.454;2022-10-17T17:29:43;101265.59;;;22.67;55.97
1652;BME280;823;49.028;8.454;2022-10-17T17:34:43;101270.25;;;22.50;56.47
1652;BME280;823;49.028;8.454;2022-10-17T17:39:43;101261.50;;;22.37;56.81
1652;BME280;823;49.028;8.454;2022-10-17T17:44:44;101267.56;;;22.24;57.07
1652;BME280;823;49.028;8.454;2022-10-17T17:49:44;101276.53;;;22.22;57.39
1652;BME280;823;49.028;8.454;2022-10-17T17:54:44;101286.84;;;22.12;57.78
1652;BME280;823;49.028;8.454;2022-10-17T17:59:45;101284.09;;;22.01;58.05
1652;BME280;823;49.028;8.454;2022-10-17T18:04:47;101284.09;;;21.88;58.40
1652;BME280;823;49.028;8.454;2022-10-17T18:09:48;101292.38;;;21.82;58.75
1652;BME280;823;49.028;8.454;2022-10-17T18:14:49;101301.75;;;21.73;58.97
1652;BME280;823;49.028;8.454;2022-10-17T18:19:50;101299.59;;;21.65;58.81
1652;BME280;823;49.028;8.454;2022-10-17T18:24:50;101291.91;;;21.62;58.99
1652;BME280;823;49.028;8.454;2022-10-17T18:29:51;101295.09;;;21.67;59.00
1652;BME280;823;49.028;8.454;2022-10-17T18:34:51;101293.50;;;21.65;59.20
1652;BME280;823;49.028;8.454;2022-10-17T18:39:51;101300.75;;;21.61;59.06
1652;BME280;823;49.028;8.454;2022-10-17T18:44:54;101307.81;;;21.60;59.52
1652;BME280;823;49.028;8.454;2022-10-17T18:49:54;101288.00;;;21.55;59.55
1652;BME280;823;49.028;8.454;2022-10-17T18:54:54;101282.34;;;21.47;59.67
1652;BME280;823;49.028;8.454;2022-10-17T18:59:55;101283.75;;;21.52;59.53
1652;BME280;823;49.028;8.454;2022-10-17T19:04:55;101291.56;;;21.54;59.71
1652;BME280;823;49.028;8.454;2022-10-17T19:09:55;101287.22;;;21.53;59.23
1652;BME280;823;49.028;8.454;2022-10-17T19:14:56;101293.72;;;21.47;59.21
1652;BME280;823;49.028;8.454;2022-10-17T19:19:56;101281.69;;;21.43;59.18
1652;BME280;823;49.028;8.454;2022-10-17T19:24:56;101278.59;;;21.36;59.39
1652;BME280;823;49.028;8.454;2022-10-17T19:29:57;101284.72;;;21.37;59.04
1652;BME280;823;49.028;8.454;2022-10-17T19:34:57;101282.06;;;21.24;59.77
1652;BME280;823;49.028;8.454;2022-10-17T19:39:57;101284.22;;;21.17;59.86
1652;BME280;823;49.028;8.454;2022-10-17T19:44:58;101288.72;;;21.15;59.78
1652;BME280;823;49.028;8.454;2022-10-17T19:49:58;101295.13;;;21.11;60.08
1652;BME280;823;49.028;8.454;2022-10-17T19:54:59;101291.00;;;21.07;59.60
1652;BME280;823;49.028;8.454;2022-10-17T19:59:59;101282.84;;;20.97;59.60
1652;BME280;823;49.028;8.454;2022-10-17T20:04:59;101281.34;;;20.93;59.64
1652;BME280;823;49.028;8.454;2022-10-17T20:09:59;101282.78;;;20.84;59.73
1652;BME280;823;49.028;8.454;2022-10-17T20:15:00;101284.34;;;20.72;60.30
1652;BME280;823;49.028;8.454;2022-10-17T20:20:00;101287.94;;;20.71;60.20
1652;BME280;823;49.028;8.454;2022-10-17T20:25:03;101287.44;;;20.65;60.10
1652;BME280;823;49.028;8.454;2022-10-17T20:30:04;101293.81;;;20.61;60.01
1652;BME280;823;49.028;8.454;2022-10-17T20:35:06;101286.88;;;20.59;60.05
1652;BME280;823;49.028;8.454;2022-10-17T20:40:07;101294.09;;;20.56;60.03
1652;BME280;823;49.028;8.454;2022-10-17T20:45:07;101296.06;;;20.52;59.76
1652;BME280;823;49.028;8.454;2022-10-17T20:50:08;101298.22;;;20.46;59.93
1652;BME280;823;49.028;8.454;2022-10-17T20:55:08;101290.44;;;20.44;60.26
1652;BME280;823;49.028;8.454;2022-10-17T21:00:09;101298.50;;;20.41;60.19
1652;BME280;823;49.028;8.454;2022-10-17T21:05:10;101302.25;;;20.37;60.07
1652;BME280;823;49.028;8.454;2022-10-17T21:10:10;101302.41;;;20.34;60.07
1652;BME280;823;49.028;8.454;2022-10-17T21:15:10;101303.53;;;20.30;60.16
1652;BME280;823;49.028;8.454;2022-10-17T21:20:11;101307.28;;;20.25;60.48
1652;BME280;823;49.028;8.454;2022-10-17T21:25:11;101313.69;;;20.21;60.11
1652;BME280;823;49.028;8.454;2022-10-17T21:30:11;101324.94;;;20.23;60.45
1652;BME280;823;49.028;8.454;2022-10-17T21:35:12;101315.16;;;20.25;60.09
1652;BME280;823;49.028;8.454;2022-10-17T21:40:12;101324.75;;;20.27;59.70
1652;BME280;823;49.028;8.454;2022-10-17T21:45:13;101314.91;;;20.30;59.22
1652;BME280;823;49.028;8.454;2022-10-17T21:50:14;101316.31;;;20.21;58.84
1652;BME280;823;49.028;8.454;2022-10-17T21:55:14;101315.56;;;20.34;58.29
1652;BME280;823;49.028;8.454;2022-10-17T22:00:15;101318.41;;;20.45;58.19
1652;BME280;823;49.028;8.454;2022-10-17T22:05:15;101306.41;;;20.55;57.63
1652;BME280;823;49.028;8.454;2022-10-17T22:10:16;101307.22;;;20.41;58.01
1652;BME280;823;49.028;8.454;2022-10-17T22:15:16;101297.56;;;20.42;57.35
1652;BME280;823;49.028;8.454;2022-10-17T22:20:16;101295.31;;;20.36;57.52
1652;BME280;823;49.028;8.454;2022-10-17T22:25:17;101290.88;;;20.36;57.41
1652;BME280;823;49.028;8.454;2022-10-17T22:30:17;101291.53;;;20.25;57.51
1652;BME280;823;49.028;8.454;2022-10-17T22:35:18;101280.28;;;20.38;57.51
1652;BME280;823;49.028;8.454;2022-10-17T22:40:18;101292.28;;;20.42;57.43
1652;BME280;823;49.028;8.454;2022-10-17T22:45:18;101294.19;;;20.40;57.71
1652;BME280;823;49.028;8.454;2022-10-17T22:50:20;101295.31;;;20.36;57.91
1652;BME280;823;49.028;8.454;2022-10-17T22:55:21;101298.28;;;20.30;58.04
1652;BME280;823;49.028;8.454;2022-10-17T23:00:21;101291.53;;;20.25;57.90
1652;BME280;823;49.028;8.454;2022-10-17T23:05:22;101284.03;;;20.19;58.50
1652;BME280;823;49.028;8.454;2022-10-17T23:10:22;101286.25;;;20.11;59.05
1652;BME280;823;49.028;8.454;2022-10-17T23:15:22;101274.25;;;20.07;59.26
1652;BME280;823;49.028;8.454;2022-10-17T23:20:23;101270.94;;;20.03;59.32
1652;BME280;823;49.028;8.454;2022-10-17T23:25:23;101282.00;;;19.94;59.45
1652;BME280;823;49.028;8.454;2022-10-17T23:30:24;101279.47;;;19.93;59.60
1652;BME280;823;49.028;8.454;2022-10-17T23:35:25;101280.66;;;19.87;59.60
1652;BME280;823;49.028;8.454;2022-10-17T23:40:25;101276.69;;;19.80;59.73
1652;BME280;823;49.028;8.454;2022-10-17T23:45:25;101281.44;;;19.73;59.85
1652;BME280;823;49.028;8.454;2022-10-17T23:50:26;101278.31;;;19.66;60.13
1652;BME280;823;49.028;8.454;2022-10-17T23:55:26;101281.88;;;19.65;60.21
